createdAt,value
2023-01-06T00:01:43.482Z,12.68
2023-01-06T00:06:47.246Z,7.82
2023-01-06T00:11:52.394Z,9.77
2023-01-06T00:16:56.098Z,11.82
2023-01-06T00:21:59.924Z,8.52
2023-01-06T00:27:05.206Z,6.55
2023-01-06T00:32:09.004Z,11.30
2023-01-06T00:37:12.840Z,11.80
2023-01-06T00:42:17.961Z,5.68
2023-01-06T00:47:21.734Z,4.78
2023-01-06T00:52:25.502Z,9.68
2023-01-06T00:57:30.599Z,9.13
2023-01-06T01:02:34.435Z,6.90
2023-01-06T01:07:38.280Z,10.02
2023-01-06T01:12:43.408Z,7.30
2023-01-06T01:17:47.201Z,5.62
2023-01-06T01:22:50.987Z,5.75
2023-01-06T01:27:56.063Z,3.35
2023-01-06T01:32:59.777Z,4.85
2023-01-06T01:38:03.498Z,3.97
2023-01-06T01:43:11.556Z,7.55
2023-01-06T01:48:27.487Z,6.40
2023-01-06T01:53:34.295Z,6.22
2023-01-06T01:58:43.958Z,4.03
2023-01-06T02:03:47.934Z,7.43
2023-01-06T02:08:56.270Z,7.85
2023-01-06T02:14:11.092Z,6.03
2023-01-06T02:19:38.502Z,8.32
2023-01-06T02:25:09.018Z,6.77
2023-01-06T02:30:39.291Z,7.22
2023-01-06T02:35:58.729Z,12.13
2023-01-06T02:41:13.591Z,6.10
2023-01-06T02:46:28.003Z,4.82
2023-01-06T02:51:40.953Z,5.10
2023-01-06T02:56:48.884Z,4.95
2023-01-06T03:01:56.007Z,6.53
2023-01-06T03:07:04.008Z,4.28
2023-01-06T03:12:17.124Z,6.30
2023-01-06T03:17:20.973Z,8.20
2023-01-06T03:22:27.143Z,5.78
2023-01-06T03:27:31.039Z,6.00
2023-01-06T03:32:44.867Z,7.20
2023-01-06T03:37:57.193Z,2.65
2023-01-06T03:43:16.340Z,4.78
2023-01-06T03:48:26.907Z,5.82
2023-01-06T03:53:38.385Z,3.62
2023-01-06T03:58:43.025Z,5.68
2023-01-06T04:03:48.786Z,3.08
2023-01-06T04:08:54.152Z,3.45
2023-01-06T04:13:58.039Z,6.37
2023-01-06T04:19:02.001Z,3.83
2023-01-06T04:24:07.918Z,4.00
2023-01-06T04:29:12.546Z,3.30
2023-01-06T04:34:16.471Z,1.48
2023-01-06T04:39:22.769Z,3.92
2023-01-06T04:44:26.501Z,2.42
2023-01-06T04:49:31.189Z,4.47
2023-01-06T04:54:36.265Z,5.40
2023-01-06T04:59:40.068Z,1.87
2023-01-06T05:04:48.078Z,2.83
2023-01-06T05:09:53.332Z,2.45
2023-01-06T05:14:57.063Z,2.22
2023-01-06T05:20:00.820Z,2.22
2023-01-06T05:25:06.669Z,2.78
2023-01-06T05:30:11.341Z,2.50
2023-01-06T05:35:15.236Z,3.50
2023-01-06T05:40:20.394Z,4.25
2023-01-06T05:45:24.967Z,3.85
2023-01-06T05:50:28.829Z,3.90
2023-01-06T05:55:33.884Z,2.00
2023-01-06T06:00:37.664Z,5.47
2023-01-06T06:05:41.393Z,1.75
2023-01-06T06:10:46.572Z,2.15
2023-01-06T06:15:50.296Z,4.62
2023-01-06T06:20:54.015Z,2.22
2023-01-06T06:25:59.405Z,1.40
2023-01-06T06:31:07.044Z,1.55
2023-01-06T06:36:15.697Z,1.27
2023-01-06T06:41:21.736Z,4.57
2023-01-06T06:46:25.555Z,2.80
2023-01-06T06:51:31.470Z,3.87
2023-01-06T06:56:36.595Z,1.52
2023-01-06T07:01:40.411Z,3.15
2023-01-06T07:06:44.199Z,3.65
2023-01-06T07:11:49.256Z,4.53
2023-01-06T07:16:53.007Z,3.12
2023-01-06T07:21:56.806Z,3.70
2023-01-06T07:27:01.883Z,3.80
2023-01-06T07:32:08.256Z,3.83
2023-01-06T07:37:13.241Z,4.90
2023-01-06T07:42:18.405Z,6.32
2023-01-06T07:47:22.145Z,6.40
2023-01-06T07:52:25.910Z,5.10
2023-01-06T07:57:31.580Z,6.65
2023-01-06T08:02:35.439Z,8.98
2023-01-06T08:07:39.338Z,6.03
2023-01-06T08:12:44.484Z,4.40
2023-01-06T08:17:48.301Z,5.82
2023-01-06T08:22:52.081Z,5.95
2023-01-06T08:27:59.527Z,4.12
2023-01-06T08:33:03.279Z,6.00
2023-01-06T08:38:07.189Z,5.15
2023-01-06T08:43:12.288Z,5.28
2023-01-06T08:48:16.098Z,3.92
2023-01-06T08:53:19.870Z,3.92
2023-01-06T08:58:25.017Z,5.60
2023-01-06T09:03:28.799Z,4.93
2023-01-06T09:08:32.564Z,5.45
2023-01-06T09:13:38.012Z,7.10
2023-01-06T09:18:47.369Z,5.57
2023-01-06T09:23:51.454Z,7.62
2023-01-06T09:28:57.014Z,10.05
2023-01-06T09:34:00.869Z,9.43
2023-01-06T09:39:05.190Z,6.93
2023-01-06T09:44:14.554Z,8.90
2023-01-06T09:49:27.944Z,9.63
2023-01-06T09:54:36.247Z,7.45
2023-01-06T10:04:50.129Z,9.10
2023-01-06T10:10:04.989Z,6.05
2023-01-06T10:15:18.890Z,5.72
2023-01-06T10:20:45.130Z,11.73
2023-01-06T10:25:54.751Z,11.23
2023-01-06T10:31:03.887Z,9.77
2023-01-06T10:36:13.230Z,13.82
2023-01-06T10:41:25.708Z,12.88
2023-01-06T10:46:35.025Z,4.82
2023-01-06T10:51:41.109Z,8.85
2023-01-06T10:56:50.012Z,9.20
2023-01-06T11:01:57.205Z,14.60
2023-01-06T11:07:02.855Z,7.72
2023-01-06T11:12:19.922Z,15.40
2023-01-06T11:17:26.430Z,13.90
2023-01-06T11:22:35.193Z,12.45
2023-01-06T11:27:39.401Z,7.55
2023-01-06T11:32:44.588Z,8.18
2023-01-06T11:37:48.376Z,11.15
2023-01-06T11:42:54.850Z,9.60
2023-01-06T11:48:00.055Z,9.18
2023-01-06T11:53:06.064Z,8.05
2023-01-06T11:58:17.370Z,6.37
2023-01-06T12:03:31.094Z,7.95
2023-01-06T12:08:39.608Z,10.13
2023-01-06T12:14:01.679Z,10.30
2023-01-06T12:19:16.146Z,10.68
2023-01-06T12:24:21.134Z,14.52
2023-01-06T12:29:26.332Z,9.32
2023-01-06T12:34:35.864Z,4.90
2023-01-06T12:39:45.870Z,10.00
2023-01-06T12:44:53.576Z,8.13
2023-01-06T12:50:04.016Z,11.80
2023-01-06T12:55:10.712Z,10.75
2023-01-06T13:00:27.278Z,6.85
2023-01-06T13:05:55.584Z,8.25
2023-01-06T13:11:14.685Z,6.97
2023-01-06T13:16:26.828Z,6.97
2023-01-06T13:21:34.308Z,5.43
2023-01-06T13:26:59.027Z,8.00
2023-01-06T13:32:21.599Z,4.65
2023-01-06T13:37:35.800Z,7.82
2023-01-06T13:42:45.290Z,5.00
2023-01-06T13:47:51.001Z,4.20
2023-01-06T13:52:57.201Z,9.48
2023-01-06T13:58:36.682Z,7.22
2023-01-06T14:03:42.138Z,8.80
2023-01-06T14:08:52.321Z,8.80
2023-01-06T14:13:58.360Z,13.62
2023-01-06T14:19:07.515Z,9.82
2023-01-06T14:24:23.896Z,8.32
2023-01-06T14:30:06.232Z,9.38
2023-01-06T14:35:13.408Z,5.97
2023-01-06T14:40:22.442Z,8.55
2023-01-06T14:45:28.851Z,14.63
2023-01-06T14:50:46.636Z,11.02
2023-01-06T15:00:56.242Z,9.07
2023-01-06T15:06:18.690Z,7.00
2023-01-06T15:11:29.620Z,8.18
2023-01-06T15:16:36.814Z,11.45
2023-01-06T15:21:41.672Z,6.40
2023-01-06T15:26:46.837Z,7.90
2023-01-06T15:31:53.427Z,7.18
2023-01-06T15:36:57.673Z,5.05
2023-01-06T15:42:08.066Z,8.77
2023-01-06T15:47:24.995Z,1.92
2023-01-06T15:52:32.513Z,4.40
2023-01-06T15:57:40.275Z,4.10
2023-01-06T16:02:48.141Z,3.53
2023-01-06T16:07:51.858Z,2.72
2023-01-06T16:13:21.217Z,3.80
2023-01-06T16:18:31.265Z,3.28
2023-01-06T16:23:35.806Z,6.22
2023-01-06T16:28:47.348Z,3.55
2023-01-06T16:33:51.362Z,4.22
2023-01-06T16:38:55.104Z,6.82
2023-01-06T16:44:00.206Z,6.45
2023-01-06T16:49:11.544Z,6.45
2023-01-06T16:54:18.567Z,8.43
2023-01-06T16:59:23.748Z,8.38
2023-01-06T17:04:28.855Z,11.05
2023-01-06T17:09:33.153Z,8.68
2023-01-06T17:14:38.574Z,9.25
2023-01-06T17:19:43.109Z,9.00
2023-01-06T17:24:46.865Z,7.18
2023-01-06T17:29:53.004Z,6.80
2023-01-06T17:34:58.731Z,5.65
2023-01-06T17:40:04.202Z,7.07
2023-01-06T17:45:15.257Z,5.20
2023-01-06T17:50:29.135Z,8.25
2023-01-06T17:55:45.493Z,6.82
2023-01-06T18:00:50.586Z,8.32
2023-01-06T18:06:20.322Z,5.70
2023-01-06T18:11:29.583Z,5.55
2023-01-06T18:16:36.007Z,6.32
2023-01-06T18:21:40.889Z,5.85
2023-01-06T18:26:51.663Z,5.93
2023-01-06T18:31:57.595Z,5.97
2023-01-06T18:37:02.547Z,4.85
2023-01-06T18:42:23.036Z,3.45
2023-01-06T18:47:30.050Z,2.67
2023-01-06T18:52:45.210Z,10.93
2023-01-06T18:57:58.046Z,4.80
2023-01-06T19:03:15.375Z,3.20
2023-01-06T19:08:27.665Z,3.12
2023-01-06T19:13:32.231Z,4.43
2023-01-06T19:18:38.896Z,5.10
2023-01-06T19:23:42.775Z,5.15
2023-01-06T19:28:56.259Z,6.53
2023-01-06T19:34:03.938Z,6.25
2023-01-06T19:39:33.981Z,8.87
2023-01-06T19:44:38.929Z,8.27
2023-01-06T19:49:46.528Z,8.50
2023-01-06T19:54:50.307Z,9.13
2023-01-06T19:59:55.017Z,10.10
2023-01-06T20:05:00.291Z,7.93
2023-01-06T20:10:04.173Z,8.68
2023-01-06T20:15:09.026Z,8.85
2023-01-06T20:20:14.200Z,9.25
2023-01-06T20:25:18.242Z,9.40
2023-01-06T20:30:21.966Z,9.10
2023-01-06T20:35:27.080Z,10.68
2023-01-06T20:40:30.872Z,8.27
2023-01-06T20:45:35.265Z,8.80
2023-01-06T20:50:42.055Z,9.02
2023-01-06T20:55:45.938Z,8.93
2023-01-06T21:00:50.145Z,11.02
2023-01-06T21:05:55.309Z,10.13
2023-01-06T21:10:59.091Z,8.52
2023-01-06T21:16:02.808Z,9.30
2023-01-06T21:21:07.994Z,11.90
2023-01-06T21:26:11.795Z,9.43
2023-01-06T21:31:15.643Z,9.25
2023-01-06T21:36:20.867Z,9.00
2023-01-06T21:41:42.257Z,10.38
2023-01-06T21:46:46.162Z,8.35
2023-01-06T21:51:52.172Z,9.40
2023-01-06T21:56:56.177Z,9.05
2023-01-06T22:02:00.295Z,9.43
2023-01-06T22:07:09.175Z,8.55
2023-01-06T22:12:15.512Z,10.70
2023-01-06T22:17:20.629Z,12.95
2023-01-06T22:22:26.165Z,10.32
2023-01-06T22:27:29.902Z,7.97
2023-01-06T22:32:34.850Z,9.85
2023-01-06T22:37:40.032Z,16.90
2023-01-06T22:42:43.849Z,10.82
2023-01-06T22:47:47.688Z,13.30
2023-01-06T22:52:52.829Z,9.90
2023-01-06T22:57:56.684Z,15.85
2023-01-06T23:03:00.483Z,13.38
2023-01-06T23:08:06.227Z,12.15
2023-01-06T23:13:09.968Z,12.77
2023-01-06T23:18:13.751Z,15.65
2023-01-06T23:23:18.810Z,14.95
2023-01-06T23:28:22.563Z,16.23
2023-01-06T23:33:26.291Z,18.23
2023-01-06T23:38:32.167Z,16.10
2023-01-06T23:43:37.043Z,16.33
2023-01-06T23:48:41.127Z,13.45
2023-01-06T23:53:47.184Z,17.02
2023-01-06T23:58:54.872Z,15.20
